createdAt,value
2019-03-23T00:00:43.662Z,82.45
2019-03-23T00:01:43.670Z,82.45
2019-03-23T00:02:43.866Z,82.68
2019-03-23T00:03:44.208Z,82.68
2019-03-23T00:04:45.180Z,82.68
2019-03-23T00:05:45.196Z,82.47
2019-03-23T00:05:53.749Z,82.32
2019-03-23T00:06:55.208Z,82.30
2019-03-23T00:07:56.088Z,82.19
2019-03-23T00:08:57.079Z,82.19
2019-03-23T00:09:58.814Z,81.90
2019-03-23T00:10:57.593Z,81.97
2019-03-23T00:11:58.868Z,81.99
2019-03-23T00:12:58.919Z,81.83
2019-03-23T00:13:59.085Z,81.89
2019-03-23T00:14:59.963Z,81.94
2019-03-23T00:16:00.904Z,82.07
2019-03-23T00:17:01.268Z,82.32
2019-03-23T00:18:02.194Z,82.71
2019-03-23T00:19:03.011Z,82.94
2019-03-23T00:20:03.853Z,83.03
2019-03-23T00:21:04.330Z,82.94
2019-03-23T00:22:05.314Z,83.19
2019-03-23T00:23:05.576Z,83.31
2019-03-23T00:24:06.309Z,83.45
2019-03-23T00:25:07.207Z,83.32
2019-03-23T00:26:07.987Z,83.55
2019-03-23T00:27:08.062Z,83.29
2019-03-23T00:28:08.746Z,83.36
2019-03-23T00:29:09.599Z,83.48
2019-03-23T00:30:09.982Z,83.09
2019-03-23T00:31:10.972Z,83.18
2019-03-23T00:32:11.046Z,82.82
2019-03-23T00:33:11.181Z,83.60
2019-03-23T00:34:11.984Z,83.45
2019-03-23T00:35:12.120Z,83.16
2019-03-23T00:36:12.230Z,82.96
2019-03-23T00:37:12.344Z,82.84
2019-03-23T00:38:13.805Z,82.89
2019-03-23T00:39:13.919Z,82.66
2019-03-23T00:40:14.501Z,83.15
2019-03-23T00:41:15.333Z,83.31
2019-03-23T00:42:16.200Z,83.46
2019-03-23T00:43:16.657Z,83.58
2019-03-23T00:44:17.527Z,83.51
2019-03-23T00:45:16.737Z,83.34
2019-03-23T00:46:17.801Z,83.90
2019-03-23T00:47:18.634Z,83.62
2019-03-23T00:48:18.469Z,83.20
2019-03-23T00:49:20.238Z,83.24
2019-03-23T00:50:21.057Z,83.28
2019-03-23T00:50:29.668Z,82.63
2019-03-23T00:51:30.463Z,82.67
2019-03-23T00:52:32.387Z,82.83
2019-03-23T00:53:33.204Z,82.74
2019-03-23T00:54:33.238Z,82.85
2019-03-23T00:55:34.035Z,82.82
2019-03-23T00:56:34.788Z,83.41
2019-03-23T00:57:35.550Z,83.56
2019-03-23T00:58:36.415Z,82.67
2019-03-23T00:59:36.442Z,83.56
2019-03-23T01:00:37.208Z,83.44
2019-03-23T01:01:38.022Z,83.33
2019-03-23T01:02:37.749Z,83.34
2019-03-23T01:03:39.586Z,83.29
2019-03-23T01:04:40.500Z,83.17
2019-03-23T01:05:40.644Z,83.23
2019-03-23T01:06:51.598Z,83.22
2019-03-23T01:07:41.397Z,83.28
2019-03-23T01:08:43.283Z,83.70
2019-03-23T01:09:44.235Z,83.62
2019-03-23T01:10:44.896Z,83.60
2019-03-23T01:11:45.687Z,84.12
2019-03-23T01:12:46.578Z,84.34
2019-03-23T01:13:47.359Z,84.40
2019-03-23T01:14:48.223Z,83.97
2019-03-23T01:15:49.042Z,84.09
2019-03-23T01:16:49.199Z,84.23
2019-03-23T01:17:49.200Z,84.69
2019-03-23T01:18:49.313Z,84.42
2019-03-23T01:19:49.438Z,84.62
2019-03-23T01:20:50.117Z,84.69
2019-03-23T01:21:49.440Z,84.95
2019-03-23T01:22:50.860Z,85.62
2019-03-23T01:23:51.787Z,85.46
2019-03-23T01:24:52.081Z,85.89
2019-03-23T01:25:52.304Z,85.58
2019-03-23T01:26:53.253Z,85.49
2019-03-23T01:27:53.390Z,85.61
2019-03-23T01:28:54.278Z,85.95
2019-03-23T01:29:55.132Z,85.50
2019-03-23T01:30:56.105Z,85.32
2019-03-23T01:31:56.967Z,84.97
2019-03-23T01:32:56.983Z,84.99
2019-03-23T01:33:57.942Z,85.16
2019-03-23T01:34:58.317Z,85.40
2019-03-23T01:35:06.886Z,85.38
2019-03-23T01:36:08.095Z,85.35
2019-03-23T01:37:08.431Z,85.28
2019-03-23T01:38:09.376Z,84.95
2019-03-23T01:39:10.306Z,85.06
2019-03-23T01:40:11.217Z,85.05
2019-03-23T01:41:11.365Z,84.87
2019-03-23T01:42:12.073Z,84.97
2019-03-23T01:43:12.990Z,84.98
2019-03-23T01:44:13.927Z,84.87
2019-03-23T01:45:15.062Z,84.98
2019-03-23T01:46:14.048Z,85.07
2019-03-23T01:47:14.064Z,85.45
2019-03-23T01:48:14.970Z,85.40
2019-03-23T01:49:15.486Z,85.64
2019-03-23T01:50:16.144Z,85.31
2019-03-23T01:51:16.217Z,85.45
2019-03-23T01:52:16.315Z,85.66
2019-03-23T01:53:16.029Z,85.95
2019-03-23T01:54:17.875Z,86.21
2019-03-23T01:55:18.822Z,85.92
2019-03-23T01:56:19.774Z,85.87
2019-03-23T01:57:20.526Z,86.13
2019-03-23T01:58:21.414Z,86.29
2019-03-23T01:59:22.270Z,86.48
2019-03-23T02:00:23.201Z,86.60
2019-03-23T02:01:24.155Z,86.46
2019-03-23T02:02:25.020Z,85.88
2019-03-23T02:03:25.793Z,86.19
2019-03-23T02:04:26.781Z,86.37
2019-03-23T02:05:26.757Z,86.25
2019-03-23T02:06:27.079Z,85.98
2019-03-23T02:07:27.127Z,86.07
2019-03-23T02:08:27.221Z,86.31
2019-03-23T02:09:28.016Z,86.52
2019-03-23T02:10:28.995Z,86.61
2019-03-23T02:11:28.985Z,86.43
2019-03-23T02:12:29.943Z,86.47
2019-03-23T02:13:30.888Z,86.72
2019-03-23T02:14:31.795Z,86.67
2019-03-23T02:15:31.970Z,86.89
2019-03-23T02:16:33.246Z,86.74
2019-03-23T02:17:32.459Z,86.50
2019-03-23T02:18:33.394Z,86.24
2019-03-23T02:19:33.431Z,86.63
2019-03-23T02:19:41.959Z,86.62
2019-03-23T02:20:43.013Z,86.62
2019-03-23T02:21:43.036Z,86.82
2019-03-23T02:22:44.004Z,86.38
2019-03-23T02:23:44.085Z,86.58
2019-03-23T02:24:45.066Z,86.28
2019-03-23T02:25:45.291Z,86.59
2019-03-23T02:26:46.166Z,86.06
2019-03-23T02:27:47.012Z,85.74
2019-03-23T02:28:47.031Z,86.23
2019-03-23T02:29:48.063Z,86.12
2019-03-23T02:30:47.152Z,86.32
2019-03-23T02:31:47.236Z,86.28
2019-03-23T02:32:48.109Z,86.44
2019-03-23T02:33:49.000Z,86.73
2019-03-23T02:34:49.414Z,87.26
2019-03-23T02:35:50.212Z,87.36
2019-03-23T02:36:50.347Z,87.52
2019-03-23T02:37:51.193Z,87.81
2019-03-23T02:38:51.333Z,87.69
2019-03-23T02:39:51.477Z,87.54
2019-03-23T02:40:52.318Z,87.62
2019-03-23T02:41:52.653Z,87.26
2019-03-23T02:42:53.621Z,87.73
2019-03-23T02:43:54.517Z,87.19
2019-03-23T02:44:54.690Z,87.16
2019-03-23T02:45:55.613Z,87.06
2019-03-23T02:46:56.035Z,87.12
2019-03-23T02:47:56.200Z,87.27
2019-03-23T02:48:57.067Z,87.07
2019-03-23T02:49:57.444Z,86.60
2019-03-23T02:50:57.736Z,87.06
2019-03-23T02:51:57.835Z,86.82
2019-03-23T02:52:58.297Z,86.51
2019-03-23T02:53:58.484Z,86.30
2019-03-23T02:54:58.507Z,86.36
2019-03-23T02:55:59.036Z,86.71
2019-03-23T02:56:59.154Z,87.03
2019-03-23T02:58:00.080Z,86.76
2019-03-23T02:59:00.998Z,87.01
2019-03-23T03:00:01.019Z,86.45
2019-03-23T03:01:01.870Z,86.85
2019-03-23T03:02:02.850Z,87.00
2019-03-23T03:02:11.378Z,86.49
2019-03-23T03:03:12.625Z,86.54
2019-03-23T03:04:12.773Z,86.89
2019-03-23T03:05:12.792Z,86.73
2019-03-23T03:06:13.732Z,86.59
2019-03-23T03:07:13.773Z,86.71
2019-03-23T03:08:13.869Z,86.97
2019-03-23T03:09:14.013Z,86.77
2019-03-23T03:10:14.110Z,86.99
2019-03-23T03:11:14.273Z,87.21
2019-03-23T03:12:14.544Z,87.06
2019-03-23T03:13:15.385Z,87.34
2019-03-23T03:14:15.823Z,87.12
2019-03-23T03:15:15.973Z,87.19
2019-03-23T03:16:16.956Z,87.31
2019-03-23T03:17:17.231Z,87.21
2019-03-23T03:18:17.325Z,86.98
2019-03-23T03:19:17.450Z,87.27
2019-03-23T03:20:17.751Z,87.43
2019-03-23T03:21:17.918Z,87.21
2019-03-23T03:22:18.007Z,87.34
2019-03-23T03:23:18.187Z,87.46
2019-03-23T03:24:18.313Z,87.33
2019-03-23T03:25:18.670Z,87.15
2019-03-23T03:26:18.726Z,87.29
2019-03-23T03:27:19.007Z,87.09
2019-03-23T03:28:19.014Z,87.07
2019-03-23T03:29:19.960Z,87.00
2019-03-23T03:30:20.127Z,87.41
2019-03-23T03:31:20.954Z,87.27
2019-03-23T03:32:21.005Z,87.05
2019-03-23T03:33:21.304Z,87.58
2019-03-23T03:34:20.674Z,87.53
2019-03-23T03:35:22.576Z,87.40
2019-03-23T03:36:23.503Z,86.82
2019-03-23T03:37:24.410Z,87.57
2019-03-23T03:38:25.169Z,87.18
2019-03-23T03:39:26.023Z,86.86
2019-03-23T03:40:26.866Z,87.02
2019-03-23T03:41:27.826Z,86.80
2019-03-23T03:42:28.720Z,86.69
2019-03-23T03:43:29.622Z,86.75
2019-03-23T03:44:30.687Z,86.63
2019-03-23T03:45:30.454Z,86.83
2019-03-23T03:45:39.013Z,87.09
2019-03-23T03:46:40.028Z,87.08
2019-03-23T03:47:41.435Z,86.72
2019-03-23T03:48:39.439Z,86.74
2019-03-23T03:49:41.237Z,86.69
2019-03-23T03:50:42.129Z,86.66
2019-03-23T03:51:42.995Z,86.54
2019-03-23T03:52:43.818Z,86.39
2019-03-23T03:53:44.633Z,86.44
2019-03-23T03:54:45.466Z,86.67
2019-03-23T03:55:45.165Z,86.92
2019-03-23T03:56:47.099Z,87.10
2019-03-23T03:57:46.999Z,87.33
2019-03-23T03:58:48.961Z,87.12
2019-03-23T03:59:49.839Z,87.34
2019-03-23T04:00:50.090Z,87.62
2019-03-23T04:01:50.140Z,87.67
2019-03-23T04:02:50.120Z,87.12
2019-03-23T04:03:50.949Z,87.10
2019-03-23T04:04:51.811Z,87.19
2019-03-23T04:05:52.757Z,86.98
2019-03-23T04:06:52.690Z,87.11
2019-03-23T04:07:54.597Z,87.10
2019-03-23T04:08:55.399Z,86.79
2019-03-23T04:09:56.172Z,86.72
2019-03-23T04:10:56.970Z,86.92
2019-03-23T04:11:57.920Z,87.00
2019-03-23T04:12:58.654Z,87.08
2019-03-23T04:13:59.400Z,86.97
2019-03-23T04:15:00.373Z,86.88
2019-03-23T04:16:00.200Z,87.00
2019-03-23T04:17:02.189Z,87.42
2019-03-23T04:18:02.928Z,87.23
2019-03-23T04:19:03.648Z,87.13
2019-03-23T04:20:04.021Z,87.27
2019-03-23T04:21:04.936Z,87.29
2019-03-23T04:22:05.757Z,87.51
2019-03-23T04:23:06.175Z,87.71
2019-03-23T04:24:06.245Z,87.80
2019-03-23T04:25:07.043Z,88.06
2019-03-23T04:26:07.097Z,88.66
2019-03-23T04:27:07.908Z,88.47
2019-03-23T04:28:08.831Z,88.76
2019-03-23T04:29:09.670Z,88.50
2019-03-23T04:30:10.601Z,88.81
2019-03-23T04:31:10.481Z,88.92
2019-03-23T04:32:11.423Z,88.77
2019-03-23T04:33:12.552Z,88.61
2019-03-23T04:34:13.390Z,88.90
2019-03-23T04:35:13.229Z,89.57
2019-03-23T04:36:15.090Z,89.39
2019-03-23T04:36:24.115Z,89.67
2019-03-23T04:37:25.855Z,89.60
2019-03-23T04:38:26.679Z,89.53
2019-03-23T04:39:27.615Z,89.56
2019-03-23T04:40:28.466Z,89.38
2019-03-23T04:41:28.483Z,89.47
2019-03-23T04:42:28.632Z,89.92
2019-03-23T04:43:28.669Z,89.61
2019-03-23T04:44:28.713Z,89.81
2019-03-23T04:45:28.983Z,90.01
2019-03-23T04:46:29.943Z,89.91
2019-03-23T04:47:29.980Z,90.05
2019-03-23T04:48:29.998Z,89.69
2019-03-23T04:49:29.841Z,89.70
2019-03-23T04:50:31.631Z,90.07
2019-03-23T04:51:32.537Z,89.89
2019-03-23T04:52:33.432Z,90.27
2019-03-23T04:53:34.407Z,89.52
2019-03-23T04:54:35.379Z,89.62
2019-03-23T04:55:36.349Z,89.36
2019-03-23T04:56:37.210Z,89.48
2019-03-23T04:57:38.186Z,89.97
2019-03-23T04:58:39.181Z,89.81
2019-03-23T04:59:39.020Z,89.65
2019-03-23T05:00:40.768Z,89.93
2019-03-23T05:01:40.766Z,89.47
2019-03-23T05:02:41.582Z,89.55
2019-03-23T05:03:41.631Z,89.05
2019-03-23T05:04:41.607Z,89.05
2019-03-23T05:05:42.457Z,88.76
2019-03-23T05:06:42.743Z,89.04
2019-03-23T05:07:41.816Z,88.90
2019-03-23T05:08:41.844Z,88.79
2019-03-23T05:09:42.920Z,88.75
2019-03-23T05:10:43.814Z,88.74
2019-03-23T05:11:44.701Z,89.39
2019-03-23T05:12:45.654Z,88.77
2019-03-23T05:13:46.143Z,88.56
2019-03-23T05:14:47.075Z,89.11
2019-03-23T05:15:47.117Z,88.94
2019-03-23T05:16:48.042Z,89.25
2019-03-23T05:17:48.940Z,89.35
2019-03-23T05:18:49.782Z,89.12
2019-03-23T05:19:49.876Z,89.30
2019-03-23T05:19:58.436Z,89.43
2019-03-23T05:20:59.464Z,89.43
2019-03-23T05:22:00.333Z,88.78
2019-03-23T05:23:01.176Z,88.89
2019-03-23T05:24:02.017Z,89.09
2019-03-23T05:25:02.265Z,89.02
2019-03-23T05:26:02.256Z,88.53
2019-03-23T05:27:03.199Z,88.63
2019-03-23T05:28:03.914Z,89.45
2019-03-23T05:29:04.799Z,88.95
2019-03-23T05:30:05.691Z,89.66
2019-03-23T05:31:07.167Z,89.10
2019-03-23T05:32:06.563Z,88.92
2019-03-23T05:33:08.423Z,89.31
2019-03-23T05:34:09.419Z,88.88
2019-03-23T05:35:10.432Z,88.69
2019-03-23T05:36:09.594Z,88.69
2019-03-23T05:37:10.855Z,89.15
2019-03-23T05:38:11.020Z,89.24
2019-03-23T05:39:11.321Z,89.15
2019-03-23T05:40:11.401Z,89.46
2019-03-23T05:41:11.553Z,89.47
2019-03-23T05:42:11.895Z,89.43
2019-03-23T05:43:11.897Z,89.22
2019-03-23T05:44:12.106Z,89.15
2019-03-23T05:45:12.177Z,89.62
2019-03-23T05:46:12.258Z,88.74
2019-03-23T05:47:13.138Z,88.99
2019-03-23T05:48:13.955Z,89.04
2019-03-23T05:49:14.733Z,88.91
2019-03-23T05:50:15.622Z,89.30
2019-03-23T05:51:16.496Z,88.51
2019-03-23T05:52:17.419Z,88.91
2019-03-23T05:53:17.563Z,88.45
2019-03-23T05:54:17.601Z,88.56
2019-03-23T05:55:18.502Z,88.86
2019-03-23T05:56:18.544Z,88.85
2019-03-23T05:57:19.937Z,89.40
2019-03-23T05:58:19.237Z,89.09
2019-03-23T05:59:21.004Z,88.58
2019-03-23T06:00:21.016Z,88.76
2019-03-23T06:01:21.115Z,88.51
2019-03-23T06:02:21.326Z,88.58
2019-03-23T06:03:22.085Z,88.51
2019-03-23T06:04:22.896Z,88.86
2019-03-23T06:04:31.428Z,89.20
2019-03-23T06:05:32.520Z,89.20
2019-03-23T06:06:33.547Z,88.70
2019-03-23T06:07:33.720Z,88.38
2019-03-23T06:08:34.566Z,88.07
2019-03-23T06:09:35.320Z,88.06
2019-03-23T06:10:36.176Z,88.46
2019-03-23T06:11:36.345Z,88.27
2019-03-23T06:12:36.469Z,94.00
2019-03-23T06:13:37.409Z,93.11
2019-03-23T06:14:38.231Z,95.76
2019-03-23T06:15:39.054Z,96.25
2019-03-23T06:16:39.935Z,97.74
2019-03-23T06:17:40.831Z,97.87
2019-03-23T06:18:41.764Z,98.20
2019-03-23T06:19:42.702Z,97.73
2019-03-23T06:20:42.887Z,96.31
2019-03-23T06:21:43.867Z,93.71
2019-03-23T06:22:44.610Z,93.74
2019-03-23T06:23:45.484Z,93.27
2019-03-23T06:24:46.409Z,92.12
2019-03-23T06:25:47.338Z,90.86
2019-03-23T06:26:48.214Z,89.25
2019-03-23T06:27:49.143Z,95.18
2019-03-23T06:28:49.151Z,96.95
2019-03-23T06:29:50.003Z,97.01
2019-03-23T06:30:50.934Z,94.71
2019-03-23T06:31:51.478Z,94.07
2019-03-23T06:32:51.521Z,91.61
2019-03-23T06:33:52.434Z,91.28
2019-03-23T06:34:52.515Z,92.64
2019-03-23T06:35:53.415Z,93.68
2019-03-23T06:36:53.479Z,94.54
2019-03-23T06:37:54.401Z,95.63
2019-03-23T06:39:05.051Z,94.71
2019-03-23T06:39:55.258Z,93.35
2019-03-23T06:40:56.279Z,94.38
2019-03-23T06:41:56.359Z,97.48
2019-03-23T06:42:59.890Z,99.10
2019-03-23T06:43:56.363Z,99.12
2019-03-23T06:44:58.198Z,99.27
2019-03-23T06:45:59.048Z,99.89
2019-03-23T06:46:59.928Z,100.02
2019-03-23T06:47:08.445Z,97.12
2019-03-23T06:48:09.529Z,96.96
2019-03-23T06:49:10.365Z,97.45
2019-03-23T06:50:10.544Z,99.33
2019-03-23T06:51:11.442Z,99.78
2019-03-23T06:52:12.226Z,100.17
2019-03-23T06:53:13.065Z,100.23
2019-03-23T06:54:13.050Z,100.36
2019-03-23T06:55:13.888Z,100.25
2019-03-23T06:56:14.574Z,100.02
2019-03-23T06:57:15.416Z,99.92
2019-03-23T06:58:15.639Z,99.85
2019-03-23T06:59:15.619Z,99.78
2019-03-23T07:00:15.627Z,100.18
2019-03-23T07:01:15.719Z,100.34
2019-03-23T07:02:16.649Z,100.62
2019-03-23T07:03:16.666Z,100.71
2019-03-23T07:04:17.675Z,100.62
2019-03-23T07:05:18.605Z,100.40
2019-03-23T07:06:19.506Z,100.16
2019-03-23T07:07:20.320Z,100.40
2019-03-23T07:08:31.313Z,100.92
2019-03-23T07:09:21.018Z,101.20
2019-03-23T07:10:22.750Z,100.75
2019-03-23T07:11:22.837Z,100.42
2019-03-23T07:12:21.931Z,101.20
2019-03-23T07:13:22.962Z,101.35
2019-03-23T07:14:23.188Z,101.40
2019-03-23T07:15:22.980Z,101.14
2019-03-23T07:16:24.999Z,100.87
2019-03-23T07:17:24.747Z,100.38
2019-03-23T07:18:26.648Z,100.29
2019-03-23T07:19:27.602Z,100.02
2019-03-23T07:20:28.524Z,99.96
2019-03-23T07:21:29.352Z,99.38
2019-03-23T07:22:29.369Z,98.97
2019-03-23T07:23:30.379Z,99.06
2019-03-23T07:24:30.368Z,98.66
2019-03-23T07:25:31.099Z,98.36
2019-03-23T07:26:31.260Z,98.83
2019-03-23T07:27:31.495Z,98.69
2019-03-23T07:28:32.480Z,98.57
2019-03-23T07:29:32.737Z,98.62
2019-03-23T07:30:33.714Z,98.45
2019-03-23T07:31:33.700Z,98.62
2019-03-23T07:32:33.940Z,98.31
2019-03-23T07:33:34.900Z,98.31
2019-03-23T07:34:35.921Z,98.18
2019-03-23T07:34:44.419Z,97.80
2019-03-23T07:35:46.359Z,97.77
2019-03-23T07:36:46.393Z,97.17
2019-03-23T07:37:45.400Z,97.17
2019-03-23T07:38:46.405Z,96.70
2019-03-23T07:39:46.535Z,96.67
2019-03-23T07:40:46.736Z,96.82
2019-03-23T07:41:46.778Z,97.05
2019-03-23T07:42:45.797Z,96.77
2019-03-23T07:43:47.728Z,96.86
2019-03-23T07:44:48.697Z,97.08
2019-03-23T07:45:48.685Z,96.66
2019-03-23T07:46:48.806Z,96.35
2019-03-23T07:47:48.549Z,95.91
2019-03-23T07:48:50.534Z,95.83
2019-03-23T07:49:51.429Z,95.76
2019-03-23T07:50:51.381Z,95.30
2019-03-23T07:51:52.308Z,96.05
2019-03-23T07:52:52.862Z,96.13
2019-03-23T07:53:53.685Z,96.54
2019-03-23T07:54:53.816Z,96.30
2019-03-23T07:55:54.666Z,96.03
2019-03-23T07:56:54.890Z,96.10
2019-03-23T07:57:55.760Z,95.36
2019-03-23T07:58:56.094Z,94.99
2019-03-23T07:59:56.144Z,94.75
2019-03-23T08:00:56.464Z,94.74
2019-03-23T08:01:56.527Z,94.11
2019-03-23T08:02:57.386Z,93.69
2019-03-23T08:03:58.341Z,93.97
2019-03-23T08:04:59.173Z,93.68
2019-03-23T08:05:59.418Z,93.53
2019-03-23T08:07:00.258Z,93.71
2019-03-23T08:08:01.198Z,93.59
2019-03-23T08:09:02.000Z,93.23
2019-03-23T08:10:02.445Z,92.84
2019-03-23T08:11:02.435Z,92.84
2019-03-23T08:12:03.208Z,92.21
2019-03-23T08:13:02.300Z,93.86
2019-03-23T08:14:04.188Z,93.71
2019-03-23T08:15:04.322Z,94.34
2019-03-23T08:16:05.324Z,93.85
2019-03-23T08:17:06.250Z,93.12
2019-03-23T08:18:06.396Z,92.43
2019-03-23T08:19:07.269Z,91.69
2019-03-23T08:20:08.086Z,92.48
2019-03-23T08:21:08.992Z,92.22
